sensor_id;sensor_type;location;lat;lon;timestamp;P1;durP1;ratioP1;P2;durP2;ratioP2
74674;SDS011;63200;48.810;12.352;2023-08-06T00:00:22;8.50;;;7.00;;
74674;SDS011;63200;48.810;12.352;2023-08-06T00:02:48;10.02;;;7.30;;
74674;SDS011;63200;48.810;12.352;2023-08-06T00:05:13;11.10;;;7.60;;
74674;SDS011;63200;48.810;12.352;2023-08-06T00:07:42;9.25;;;7.80;;
74674;SDS011;63200;48.810;12.352;2023-08-06T00:10:09;9.65;;;7.72;;
74674;SDS011;63200;48.810;12.352;2023-08-06T00:12:34;10.18;;;7.50;;
74674;SDS011;63200;48.810;12.352;2023-08-06T00:14:59;11.23;;;7.03;;
74674;SDS011;63200;48.810;12.352;2023-08-06T00:17:25;8.57;;;7.65;;
74674;SDS011;63200;48.810;12.352;2023-08-06T00:19:50;9.35;;;7.65;;
74674;SDS011;63200;48.810;12.352;2023-08-06T00:22:15;7.72;;;7.07;;
74674;SDS011;63200;48.810;12.352;2023-08-06T00:24:41;12.43;;;7.50;;
74674;SDS011;63200;48.810;12.352;2023-08-06T00:27:06;9.30;;;7.15;;
74674;SDS011;63200;48.810;12.352;2023-08-06T00:29:31;8.95;;;7.28;;
74674;SDS011;63200;48.810;12.352;2023-08-06T00:31:57;11.50;;;7.72;;
74674;SDS011;63200;48.810;12.352;2023-08-06T00:34:22;10.25;;;7.50;;
74674;SDS011;63200;48.810;12.352;2023-08-06T00:36:47;7.68;;;6.97;;
74674;SDS011;63200;48.810;12.352;2023-08-06T00:39:13;8.70;;;7.90;;
74674;SDS011;63200;48.810;12.352;2023-08-06T00:41:38;10.05;;;8.00;;
74674;SDS011;63200;48.810;12.352;2023-08-06T00:44:04;13.35;;;7.55;;
74674;SDS011;63200;48.810;12.352;2023-08-06T00:46:29;9.88;;;8.30;;
74674;SDS011;63200;48.810;12.352;2023-08-06T00:48:55;10.55;;;8.25;;
74674;SDS011;63200;48.810;12.352;2023-08-06T00:51:21;16.00;;;8.63;;
74674;SDS011;63200;48.810;12.352;2023-08-06T00:53:47;10.35;;;7.60;;
74674;SDS011;63200;48.810;12.352;2023-08-06T00:56:14;11.93;;;6.88;;
74674;SDS011;63200;48.810;12.352;2023-08-06T00:58:39;7.85;;;5.72;;
74674;SDS011;63200;48.810;12.352;2023-08-06T01:01:05;6.30;;;5.47;;
74674;SDS011;63200;48.810;12.352;2023-08-06T01:03:31;6.25;;;4.85;;
74674;SDS011;63200;48.810;12.352;2023-08-06T01:05:57;13.23;;;5.40;;
74674;SDS011;63200;48.810;12.352;2023-08-06T01:11:04;5.60;;;4.60;;
74674;SDS011;63200;48.810;12.352;2023-08-06T01:16:11;4.93;;;4.55;;
74674;SDS011;63200;48.810;12.352;2023-08-06T01:18:40;9.60;;;4.93;;
74674;SDS011;63200;48.810;12.352;2023-08-06T01:21:07;7.28;;;4.93;;
74674;SDS011;63200;48.810;12.352;2023-08-06T01:23:32;7.40;;;5.15;;
74674;SDS011;63200;48.810;12.352;2023-08-06T01:26:02;5.60;;;4.45;;
74674;SDS011;63200;48.810;12.352;2023-08-06T01:31:09;7.43;;;5.05;;
74674;SDS011;63200;48.810;12.352;2023-08-06T01:33:39;5.88;;;4.97;;
74674;SDS011;63200;48.810;12.352;2023-08-06T01:36:08;6.85;;;4.90;;
74674;SDS011;63200;48.810;12.352;2023-08-06T01:38:34;5.70;;;4.57;;
74674;SDS011;63200;48.810;12.352;2023-08-06T01:41:00;5.57;;;5.07;;
74674;SDS011;63200;48.810;12.352;2023-08-06T01:43:25;7.85;;;5.03;;
74674;SDS011;63200;48.810;12.352;2023-08-06T01:45:50;5.40;;;4.90;;
74674;SDS011;63200;48.810;12.352;2023-08-06T01:48:16;5.60;;;4.82;;
74674;SDS011;63200;48.810;12.352;2023-08-06T01:50:41;6.72;;;6.03;;
74674;SDS011;63200;48.810;12.352;2023-08-06T01:53:06;7.45;;;5.40;;
74674;SDS011;63200;48.810;12.352;2023-08-06T01:55:31;6.30;;;5.13;;
74674;SDS011;63200;48.810;12.352;2023-08-06T01:57:57;7.50;;;4.80;;
74674;SDS011;63200;48.810;12.352;2023-08-06T02:00:22;5.68;;;5.13;;
74674;SDS011;63200;48.810;12.352;2023-08-06T02:02:47;6.18;;;5.03;;
74674;SDS011;63200;48.810;12.352;2023-08-06T02:05:13;7.22;;;5.55;;
74674;SDS011;63200;48.810;12.352;2023-08-06T02:07:38;5.70;;;5.20;;
74674;SDS011;63200;48.810;12.352;2023-08-06T02:10:03;5.40;;;5.00;;
74674;SDS011;63200;48.810;12.352;2023-08-06T02:12:29;5.85;;;5.10;;
74674;SDS011;63200;48.810;12.352;2023-08-06T02:14:54;5.57;;;5.07;;
74674;SDS011;63200;48.810;12.352;2023-08-06T02:17:20;5.13;;;4.63;;
74674;SDS011;63200;48.810;12.352;2023-08-06T02:19:45;5.65;;;5.18;;
74674;SDS011;63200;48.810;12.352;2023-08-06T02:22:10;5.47;;;5.07;;
74674;SDS011;63200;48.810;12.352;2023-08-06T02:24:35;7.55;;;5.05;;
74674;SDS011;63200;48.810;12.352;2023-08-06T02:27:01;6.05;;;5.20;;
74674;SDS011;63200;48.810;12.352;2023-08-06T02:29:26;5.47;;;4.55;;
74674;SDS011;63200;48.810;12.352;2023-08-06T02:31:51;5.68;;;5.05;;
74674;SDS011;63200;48.810;12.352;2023-08-06T02:34:17;5.82;;;5.07;;
74674;SDS011;63200;48.810;12.352;2023-08-06T02:36:42;8.15;;;4.97;;
74674;SDS011;63200;48.810;12.352;2023-08-06T02:39:07;6.55;;;4.82;;
74674;SDS011;63200;48.810;12.352;2023-08-06T02:41:32;5.13;;;4.70;;
74674;SDS011;63200;48.810;12.352;2023-08-06T02:43:58;4.90;;;4.50;;
74674;SDS011;63200;48.810;12.352;2023-08-06T02:46:23;5.20;;;4.25;;
74674;SDS011;63200;48.810;12.352;2023-08-06T02:48:48;4.40;;;4.00;;
74674;SDS011;63200;48.810;12.352;2023-08-06T02:51:14;4.55;;;3.90;;
74674;SDS011;63200;48.810;12.352;2023-08-06T02:53:39;3.95;;;3.65;;
74674;SDS011;63200;48.810;12.352;2023-08-06T02:56:04;3.92;;;3.63;;
74674;SDS011;63200;48.810;12.352;2023-08-06T02:58:30;3.47;;;3.15;;
74674;SDS011;63200;48.810;12.352;2023-08-06T03:01:02;3.97;;;3.38;;
74674;SDS011;63200;48.810;12.352;2023-08-06T03:03:31;3.50;;;3.30;;
74674;SDS011;63200;48.810;12.352;2023-08-06T03:05:56;3.55;;;3.17;;
74674;SDS011;63200;48.810;12.352;2023-08-06T03:08:22;3.58;;;2.90;;
74674;SDS011;63200;48.810;12.352;2023-08-06T03:10:48;3.33;;;3.00;;
74674;SDS011;63200;48.810;12.352;2023-08-06T03:13:14;3.45;;;3.15;;
74674;SDS011;63200;48.810;12.352;2023-08-06T03:15:40;3.47;;;3.17;;
74674;SDS011;63200;48.810;12.352;2023-08-06T03:18:05;3.42;;;3.22;;
74674;SDS011;63200;48.810;12.352;2023-08-06T03:20:31;7.10;;;3.35;;
74674;SDS011;63200;48.810;12.352;2023-08-06T03:22:57;3.97;;;3.67;;
74674;SDS011;63200;48.810;12.352;2023-08-06T03:25:22;3.50;;;3.30;;
74674;SDS011;63200;48.810;12.352;2023-08-06T03:27:48;3.80;;;3.58;;
74674;SDS011;63200;48.810;12.352;2023-08-06T03:30:13;3.78;;;3.58;;
74674;SDS011;63200;48.810;12.352;2023-08-06T03:32:38;3.83;;;3.53;;
74674;SDS011;63200;48.810;12.352;2023-08-06T03:35:04;4.38;;;3.97;;
74674;SDS011;63200;48.810;12.352;2023-08-06T03:37:30;4.90;;;4.57;;
74674;SDS011;63200;48.810;12.352;2023-08-06T03:39:55;4.43;;;4.13;;
74674;SDS011;63200;48.810;12.352;2023-08-06T03:42:20;7.10;;;4.00;;
74674;SDS011;63200;48.810;12.352;2023-08-06T03:44:45;4.28;;;3.83;;
74674;SDS011;63200;48.810;12.352;2023-08-06T03:47:12;5.10;;;3.95;;
74674;SDS011;63200;48.810;12.352;2023-08-06T03:49:37;4.00;;;3.78;;
74674;SDS011;63200;48.810;12.352;2023-08-06T03:52:03;3.88;;;3.58;;
74674;SDS011;63200;48.810;12.352;2023-08-06T03:54:28;4.07;;;3.63;;
74674;SDS011;63200;48.810;12.352;2023-08-06T03:56:55;3.60;;;3.30;;
74674;SDS011;63200;48.810;12.352;2023-08-06T03:59:20;3.85;;;2.80;;
74674;SDS011;63200;48.810;12.352;2023-08-06T04:01:45;3.55;;;2.97;;
74674;SDS011;63200;48.810;12.352;2023-08-06T04:04:11;3.30;;;3.10;;
74674;SDS011;63200;48.810;12.352;2023-08-06T04:06:36;3.42;;;2.90;;
74674;SDS011;63200;48.810;12.352;2023-08-06T04:09:01;3.30;;;3.15;;
74674;SDS011;63200;48.810;12.352;2023-08-06T04:11:27;3.42;;;3.05;;
74674;SDS011;63200;48.810;12.352;2023-08-06T04:13:52;3.40;;;3.20;;
74674;SDS011;63200;48.810;12.352;2023-08-06T04:16:19;3.85;;;3.40;;
74674;SDS011;63200;48.810;12.352;2023-08-06T04:18:44;4.40;;;3.55;;
74674;SDS011;63200;48.810;12.352;2023-08-06T04:21:10;3.55;;;3.35;;
74674;SDS011;63200;48.810;12.352;2023-08-06T04:23:36;3.50;;;3.30;;
74674;SDS011;63200;48.810;12.352;2023-08-06T04:26:01;4.88;;;3.13;;
74674;SDS011;63200;48.810;12.352;2023-08-06T04:28:27;3.67;;;3.40;;
74674;SDS011;63200;48.810;12.352;2023-08-06T04:30:52;3.65;;;2.97;;
74674;SDS011;63200;48.810;12.352;2023-08-06T04:33:18;5.10;;;3.40;;
74674;SDS011;63200;48.810;12.352;2023-08-06T04:35:44;3.47;;;3.25;;
74674;SDS011;63200;48.810;12.352;2023-08-06T04:38:09;3.53;;;3.33;;
74674;SDS011;63200;48.810;12.352;2023-08-06T04:40:35;3.50;;;3.25;;
74674;SDS011;63200;48.810;12.352;2023-08-06T04:43:01;3.50;;;3.20;;
74674;SDS011;63200;48.810;12.352;2023-08-06T04:45:26;3.47;;;3.25;;
74674;SDS011;63200;48.810;12.352;2023-08-06T04:47:51;3.50;;;2.90;;
74674;SDS011;63200;48.810;12.352;2023-08-06T04:50:17;3.33;;;3.10;;
74674;SDS011;63200;48.810;12.352;2023-08-06T04:52:43;7.43;;;3.88;;
74674;SDS011;63200;48.810;12.352;2023-08-06T04:55:08;2.92;;;2.80;;
74674;SDS011;63200;48.810;12.352;2023-08-06T04:57:33;4.53;;;2.67;;
74674;SDS011;63200;48.810;12.352;2023-08-06T04:59:59;3.38;;;2.90;;
74674;SDS011;63200;48.810;12.352;2023-08-06T05:02:24;2.88;;;2.67;;
74674;SDS011;63200;48.810;12.352;2023-08-06T05:04:49;4.65;;;3.20;;
74674;SDS011;63200;48.810;12.352;2023-08-06T05:07:15;3.17;;;2.75;;
74674;SDS011;63200;48.810;12.352;2023-08-06T05:09:40;5.32;;;2.85;;
74674;SDS011;63200;48.810;12.352;2023-08-06T05:12:05;3.15;;;2.80;;
74674;SDS011;63200;48.810;12.352;2023-08-06T05:14:31;2.92;;;2.60;;
74674;SDS011;63200;48.810;12.352;2023-08-06T05:16:56;4.82;;;2.72;;
74674;SDS011;63200;48.810;12.352;2023-08-06T05:19:22;5.60;;;2.75;;
74674;SDS011;63200;48.810;12.352;2023-08-06T05:21:47;5.50;;;3.28;;
74674;SDS011;63200;48.810;12.352;2023-08-06T05:24:12;3.03;;;2.78;;
74674;SDS011;63200;48.810;12.352;2023-08-06T05:26:37;5.25;;;2.85;;
74674;SDS011;63200;48.810;12.352;2023-08-06T05:29:03;2.90;;;2.80;;
74674;SDS011;63200;48.810;12.352;2023-08-06T05:31:28;6.10;;;3.08;;
74674;SDS011;63200;48.810;12.352;2023-08-06T05:33:54;2.60;;;2.50;;
74674;SDS011;63200;48.810;12.352;2023-08-06T05:36:19;2.55;;;2.35;;
74674;SDS011;63200;48.810;12.352;2023-08-06T05:38:45;2.60;;;2.40;;
74674;SDS011;63200;48.810;12.352;2023-08-06T05:41:10;3.58;;;2.72;;
74674;SDS011;63200;48.810;12.352;2023-08-06T05:43:35;2.50;;;2.40;;
74674;SDS011;63200;48.810;12.352;2023-08-06T05:46:01;2.30;;;2.17;;
74674;SDS011;63200;48.810;12.352;2023-08-06T05:48:26;2.60;;;2.40;;
74674;SDS011;63200;48.810;12.352;2023-08-06T05:50:52;2.65;;;2.45;;
74674;SDS011;63200;48.810;12.352;2023-08-06T05:53:18;2.40;;;2.30;;
74674;SDS011;63200;48.810;12.352;2023-08-06T05:55:44;2.40;;;2.30;;
74674;SDS011;63200;48.810;12.352;2023-08-06T05:58:10;2.50;;;2.38;;
74674;SDS011;63200;48.810;12.352;2023-08-06T06:00:35;3.10;;;2.90;;
74674;SDS011;63200;48.810;12.352;2023-08-06T06:03:00;3.13;;;2.85;;
74674;SDS011;63200;48.810;12.352;2023-08-06T06:05:27;3.13;;;2.83;;
74674;SDS011;63200;48.810;12.352;2023-08-06T06:07:52;2.70;;;2.60;;
74674;SDS011;63200;48.810;12.352;2023-08-06T06:10:17;2.90;;;2.70;;
74674;SDS011;63200;48.810;12.352;2023-08-06T06:12:43;3.17;;;2.97;;
74674;SDS011;63200;48.810;12.352;2023-08-06T06:15:08;2.92;;;2.72;;
74674;SDS011;63200;48.810;12.352;2023-08-06T06:17:34;3.85;;;3.40;;
74674;SDS011;63200;48.810;12.352;2023-08-06T06:19:59;4.63;;;3.80;;
74674;SDS011;63200;48.810;12.352;2023-08-06T06:22:24;5.53;;;3.55;;
74674;SDS011;63200;48.810;12.352;2023-08-06T06:24:50;7.28;;;3.78;;
74674;SDS011;63200;48.810;12.352;2023-08-06T06:27:15;4.05;;;3.70;;
74674;SDS011;63200;48.810;12.352;2023-08-06T06:29:41;4.47;;;4.07;;
74674;SDS011;63200;48.810;12.352;2023-08-06T06:32:06;4.28;;;3.88;;
74674;SDS011;63200;48.810;12.352;2023-08-06T06:34:32;5.07;;;3.72;;
74674;SDS011;63200;48.810;12.352;2023-08-06T06:36:57;4.13;;;3.83;;
74674;SDS011;63200;48.810;12.352;2023-08-06T06:39:22;7.18;;;4.35;;
74674;SDS011;63200;48.810;12.352;2023-08-06T06:41:48;6.10;;;4.78;;
74674;SDS011;63200;48.810;12.352;2023-08-06T06:44:13;4.68;;;4.22;;
74674;SDS011;63200;48.810;12.352;2023-08-06T06:46:38;4.55;;;4.05;;
74674;SDS011;63200;48.810;12.352;2023-08-06T06:49:04;7.15;;;4.18;;
74674;SDS011;63200;48.810;12.352;2023-08-06T06:51:29;3.90;;;3.60;;
74674;SDS011;63200;48.810;12.352;2023-08-06T06:53:56;4.00;;;3.60;;
74674;SDS011;63200;48.810;12.352;2023-08-06T06:56:22;5.72;;;3.90;;
74674;SDS011;63200;48.810;12.352;2023-08-06T06:58:47;4.07;;;3.72;;
74674;SDS011;63200;48.810;12.352;2023-08-06T07:01:12;3.80;;;3.40;;
74674;SDS011;63200;48.810;12.352;2023-08-06T07:03:38;3.05;;;2.95;;
74674;SDS011;63200;48.810;12.352;2023-08-06T07:06:03;3.25;;;3.05;;
74674;SDS011;63200;48.810;12.352;2023-08-06T07:08:28;3.63;;;2.95;;
74674;SDS011;63200;48.810;12.352;2023-08-06T07:11:03;4.45;;;4.05;;
74674;SDS011;63200;48.810;12.352;2023-08-06T07:13:30;3.83;;;3.53;;
74674;SDS011;63200;48.810;12.352;2023-08-06T07:15:56;3.22;;;3.03;;
74674;SDS011;63200;48.810;12.352;2023-08-06T07:18:22;4.22;;;3.47;;
74674;SDS011;63200;48.810;12.352;2023-08-06T07:20:48;4.05;;;3.35;;
74674;SDS011;63200;48.810;12.352;2023-08-06T07:23:17;5.50;;;3.45;;
74674;SDS011;63200;48.810;12.352;2023-08-06T07:25:46;3.30;;;3.08;;
74674;SDS011;63200;48.810;12.352;2023-08-06T07:28:12;3.50;;;3.30;;
74674;SDS011;63200;48.810;12.352;2023-08-06T07:30:38;4.00;;;2.75;;
74674;SDS011;63200;48.810;12.352;2023-08-06T07:33:04;2.85;;;2.65;;
74674;SDS011;63200;48.810;12.352;2023-08-06T07:35:30;5.18;;;3.00;;
74674;SDS011;63200;48.810;12.352;2023-08-06T07:37:55;3.13;;;2.92;;
74674;SDS011;63200;48.810;12.352;2023-08-06T07:40:20;3.38;;;3.17;;
74674;SDS011;63200;48.810;12.352;2023-08-06T07:42:46;4.85;;;2.80;;
74674;SDS011;63200;48.810;12.352;2023-08-06T07:45:11;3.42;;;2.90;;
74674;SDS011;63200;48.810;12.352;2023-08-06T07:47:36;2.47;;;2.38;;
74674;SDS011;63200;48.810;12.352;2023-08-06T07:50:02;3.28;;;2.28;;
74674;SDS011;63200;48.810;12.352;2023-08-06T07:52:27;4.78;;;2.28;;
74674;SDS011;63200;48.810;12.352;2023-08-06T07:54:53;2.40;;;2.20;;
74674;SDS011;63200;48.810;12.352;2023-08-06T07:57:18;2.30;;;2.05;;
74674;SDS011;63200;48.810;12.352;2023-08-06T07:59:43;4.13;;;2.00;;
74674;SDS011;63200;48.810;12.352;2023-08-06T08:02:09;3.72;;;2.38;;
74674;SDS011;63200;48.810;12.352;2023-08-06T08:04:34;2.05;;;1.90;;
74674;SDS011;63200;48.810;12.352;2023-08-06T08:06:59;2.55;;;2.10;;
74674;SDS011;63200;48.810;12.352;2023-08-06T08:09:25;1.20;;;1.20;;
74674;SDS011;63200;48.810;12.352;2023-08-06T08:11:50;2.25;;;2.10;;
74674;SDS011;63200;48.810;12.352;2023-08-06T08:14:16;1.85;;;1.75;;
74674;SDS011;63200;48.810;12.352;2023-08-06T08:16:41;1.83;;;1.67;;
74674;SDS011;63200;48.810;12.352;2023-08-06T08:19:07;3.17;;;1.90;;
74674;SDS011;63200;48.810;12.352;2023-08-06T08:21:32;5.22;;;1.90;;
74674;SDS011;63200;48.810;12.352;2023-08-06T08:23:59;2.75;;;1.80;;
74674;SDS011;63200;48.810;12.352;2023-08-06T08:26:25;1.83;;;1.73;;
74674;SDS011;63200;48.810;12.352;2023-08-06T08:28:52;1.67;;;1.65;;
74674;SDS011;63200;48.810;12.352;2023-08-06T08:31:18;2.92;;;1.70;;
74674;SDS011;63200;48.810;12.352;2023-08-06T08:33:43;1.80;;;1.70;;
74674;SDS011;63200;48.810;12.352;2023-08-06T08:36:08;3.33;;;1.70;;
74674;SDS011;63200;48.810;12.352;2023-08-06T08:38:35;1.65;;;1.58;;
74674;SDS011;63200;48.810;12.352;2023-08-06T08:41:00;2.20;;;1.50;;
74674;SDS011;63200;48.810;12.352;2023-08-06T08:43:26;1.80;;;1.70;;
74674;SDS011;63200;48.810;12.352;2023-08-06T08:45:52;2.80;;;1.88;;
74674;SDS011;63200;48.810;12.352;2023-08-06T08:48:25;4.45;;;1.60;;
74674;SDS011;63200;48.810;12.352;2023-08-06T08:50:54;2.38;;;2.17;;
74674;SDS011;63200;48.810;12.352;2023-08-06T08:53:21;1.77;;;1.67;;
74674;SDS011;63200;48.810;12.352;2023-08-06T08:55:47;1.90;;;1.80;;
74674;SDS011;63200;48.810;12.352;2023-08-06T08:58:14;1.85;;;1.70;;
74674;SDS011;63200;48.810;12.352;2023-08-06T09:00:42;1.85;;;1.75;;
74674;SDS011;63200;48.810;12.352;2023-08-06T09:03:11;1.25;;;1.25;;
74674;SDS011;63200;48.810;12.352;2023-08-06T09:05:36;1.58;;;1.50;;
74674;SDS011;63200;48.810;12.352;2023-08-06T09:08:06;1.30;;;1.30;;
74674;SDS011;63200;48.810;12.352;2023-08-06T09:10:33;1.50;;;1.50;;
74674;SDS011;63200;48.810;12.352;2023-08-06T09:13:01;2.40;;;1.33;;
74674;SDS011;63200;48.810;12.352;2023-08-06T09:15:28;1.45;;;1.45;;
74674;SDS011;63200;48.810;12.352;2023-08-06T09:17:55;1.20;;;1.20;;
74674;SDS011;63200;48.810;12.352;2023-08-06T09:20:20;3.58;;;1.20;;
74674;SDS011;63200;48.810;12.352;2023-08-06T09:22:46;1.50;;;1.30;;
74674;SDS011;63200;48.810;12.352;2023-08-06T09:25:13;1.88;;;1.20;;
74674;SDS011;63200;48.810;12.352;2023-08-06T09:27:48;1.20;;;1.17;;
74674;SDS011;63200;48.810;12.352;2023-08-06T09:30:19;1.10;;;1.00;;
74674;SDS011;63200;48.810;12.352;2023-08-06T09:32:54;1.60;;;1.10;;
74674;SDS011;63200;48.810;12.352;2023-08-06T09:35:21;0.90;;;0.90;;
74674;SDS011;63200;48.810;12.352;2023-08-06T09:37:46;2.05;;;1.17;;
74674;SDS011;63200;48.810;12.352;2023-08-06T09:40:23;0.80;;;0.80;;
74674;SDS011;63200;48.810;12.352;2023-08-06T09:42:49;1.10;;;1.00;;
74674;SDS011;63200;48.810;12.352;2023-08-06T09:45:15;0.75;;;0.75;;
74674;SDS011;63200;48.810;12.352;2023-08-06T09:47:41;1.10;;;1.10;;
74674;SDS011;63200;48.810;12.352;2023-08-06T09:50:14;2.90;;;1.27;;
74674;SDS011;63200;48.810;12.352;2023-08-06T09:52:41;1.10;;;1.08;;
74674;SDS011;63200;48.810;12.352;2023-08-06T09:55:08;2.00;;;1.10;;
74674;SDS011;63200;48.810;12.352;2023-08-06T09:57:36;3.63;;;1.45;;
74674;SDS011;63200;48.810;12.352;2023-08-06T10:00:02;2.72;;;1.40;;
74674;SDS011;63200;48.810;12.352;2023-08-06T10:02:28;2.25;;;1.30;;
74674;SDS011;63200;48.810;12.352;2023-08-06T10:04:54;1.30;;;1.20;;
74674;SDS011;63200;48.810;12.352;2023-08-06T10:07:22;2.45;;;1.10;;
74674;SDS011;63200;48.810;12.352;2023-08-06T10:09:49;1.08;;;1.08;;
74674;SDS011;63200;48.810;12.352;2023-08-06T10:12:14;1.05;;;1.00;;
74674;SDS011;63200;48.810;12.352;2023-08-06T10:14:43;0.90;;;0.90;;
74674;SDS011;63200;48.810;12.352;2023-08-06T10:17:09;0.88;;;0.80;;
74674;SDS011;63200;48.810;12.352;2023-08-06T10:19:35;1.77;;;0.80;;
74674;SDS011;63200;48.810;12.352;2023-08-06T10:22:19;0.85;;;0.85;;
74674;SDS011;63200;48.810;12.352;2023-08-06T10:24:54;0.80;;;0.80;;
74674;SDS011;63200;48.810;12.352;2023-08-06T10:27:30;0.70;;;0.70;;
74674;SDS011;63200;48.810;12.352;2023-08-06T10:33:01;2.15;;;0.80;;
74674;SDS011;63200;48.810;12.352;2023-08-06T10:35:41;0.70;;;0.70;;
74674;SDS011;63200;48.810;12.352;2023-08-06T10:45:53;2.17;;;0.68;;
74674;SDS011;63200;48.810;12.352;2023-08-06T10:48:28;0.90;;;0.90;;
74674;SDS011;63200;48.810;12.352;2023-08-06T10:51:01;0.80;;;0.80;;
74674;SDS011;63200;48.810;12.352;2023-08-06T10:53:27;0.70;;;0.65;;
74674;SDS011;63200;48.810;12.352;2023-08-06T10:55:53;0.88;;;0.70;;
74674;SDS011;63200;48.810;12.352;2023-08-06T10:58:19;1.13;;;0.73;;
74674;SDS011;63200;48.810;12.352;2023-08-06T11:00:44;2.05;;;0.50;;
74674;SDS011;63200;48.810;12.352;2023-08-06T11:03:10;0.40;;;0.40;;
74674;SDS011;63200;48.810;12.352;2023-08-06T11:05:36;0.40;;;0.40;;
74674;SDS011;63200;48.810;12.352;2023-08-06T11:08:01;1.65;;;0.52;;
74674;SDS011;63200;48.810;12.352;2023-08-06T11:10:27;0.40;;;0.40;;
74674;SDS011;63200;48.810;12.352;2023-08-06T11:12:52;0.40;;;0.38;;
74674;SDS011;63200;48.810;12.352;2023-08-06T11:15:19;0.85;;;0.30;;
74674;SDS011;63200;48.810;12.352;2023-08-06T11:17:45;0.10;;;0.10;;
74674;SDS011;63200;48.810;12.352;2023-08-06T11:20:11;0.43;;;0.43;;
74674;SDS011;63200;48.810;12.352;2023-08-06T11:22:37;0.30;;;0.30;;
74674;SDS011;63200;48.810;12.352;2023-08-06T11:25:04;0.30;;;0.20;;
74674;SDS011;63200;48.810;12.352;2023-08-06T11:27:30;0.40;;;0.30;;
74674;SDS011;63200;48.810;12.352;2023-08-06T11:29:56;0.25;;;0.25;;
74674;SDS011;63200;48.810;12.352;2023-08-06T11:32:21;0.40;;;0.40;;
74674;SDS011;63200;48.810;12.352;2023-08-06T11:34:47;0.30;;;0.30;;
74674;SDS011;63200;48.810;12.352;2023-08-06T11:37:12;0.25;;;0.25;;
74674;SDS011;63200;48.810;12.352;2023-08-06T11:39:38;0.38;;;0.38;;
74674;SDS011;63200;48.810;12.352;2023-08-06T11:42:04;2.63;;;0.10;;
74674;SDS011;63200;48.810;12.352;2023-08-06T11:44:30;0.20;;;0.20;;
74674;SDS011;63200;48.810;12.352;2023-08-06T11:46:58;0.40;;;0.40;;
74674;SDS011;63200;48.810;12.352;2023-08-06T11:49:42;0.17;;;0.17;;
74674;SDS011;63200;48.810;12.352;2023-08-06T11:52:24;1.45;;;0.30;;
74674;SDS011;63200;48.810;12.352;2023-08-06T11:55:03;1.60;;;0.30;;
74674;SDS011;63200;48.810;12.352;2023-08-06T11:57:32;1.75;;;0.20;;
74674;SDS011;63200;48.810;12.352;2023-08-06T12:00:11;1.63;;;0.40;;
74674;SDS011;63200;48.810;12.352;2023-08-06T12:02:41;0.30;;;0.30;;
74674;SDS011;63200;48.810;12.352;2023-08-06T12:05:11;0.93;;;0.30;;
74674;SDS011;63200;48.810;12.352;2023-08-06T12:07:38;0.10;;;0.10;;
74674;SDS011;63200;48.810;12.352;2023-08-06T12:10:06;0.30;;;0.30;;
74674;SDS011;63200;48.810;12.352;2023-08-06T12:12:32;0.40;;;0.40;;
74674;SDS011;63200;48.810;12.352;2023-08-06T12:14:58;0.75;;;0.40;;
74674;SDS011;63200;48.810;12.352;2023-08-06T12:17:24;0.10;;;0.10;;
74674;SDS011;63200;48.810;12.352;2023-08-06T12:19:49;0.30;;;0.30;;
74674;SDS011;63200;48.810;12.352;2023-08-06T12:22:15;0.20;;;0.20;;
74674;SDS011;63200;48.810;12.352;2023-08-06T12:24:41;0.10;;;0.10;;
74674;SDS011;63200;48.810;12.352;2023-08-06T12:27:10;1.23;;;0.22;;
74674;SDS011;63200;48.810;12.352;2023-08-06T12:29:42;0.43;;;0.20;;
74674;SDS011;63200;48.810;12.352;2023-08-06T12:32:12;0.68;;;0.22;;
74674;SDS011;63200;48.810;12.352;2023-08-06T12:34:41;0.28;;;0.28;;
74674;SDS011;63200;48.810;12.352;2023-08-06T12:37:07;0.98;;;0.22;;
74674;SDS011;63200;48.810;12.352;2023-08-06T12:39:33;0.77;;;0.20;;
74674;SDS011;63200;48.810;12.352;2023-08-06T12:42:00;0.20;;;0.20;;
74674;SDS011;63200;48.810;12.352;2023-08-06T12:44:26;1.17;;;0.45;;
74674;SDS011;63200;48.810;12.352;2023-08-06T12:46:51;0.10;;;0.10;;
74674;SDS011;63200;48.810;12.352;2023-08-06T12:49:17;0.10;;;0.10;;
74674;SDS011;63200;48.810;12.352;2023-08-06T12:51:43;0.13;;;0.13;;
74674;SDS011;63200;48.810;12.352;2023-08-06T12:54:08;0.60;;;0.20;;
74674;SDS011;63200;48.810;12.352;2023-08-06T12:56:34;0.20;;;0.20;;
74674;SDS011;63200;48.810;12.352;2023-08-06T12:58:59;0.20;;;0.20;;
74674;SDS011;63200;48.810;12.352;2023-08-06T13:01:25;1.40;;;0.20;;
74674;SDS011;63200;48.810;12.352;2023-08-06T13:03:50;0.10;;;0.10;;
74674;SDS011;63200;48.810;12.352;2023-08-06T13:06:15;0.65;;;0.40;;
74674;SDS011;63200;48.810;12.352;2023-08-06T13:08:41;0.47;;;0.30;;
74674;SDS011;63200;48.810;12.352;2023-08-06T13:11:06;0.38;;;0.30;;
74674;SDS011;63200;48.810;12.352;2023-08-06T13:13:31;0.20;;;0.20;;
74674;SDS011;63200;48.810;12.352;2023-08-06T13:15:57;0.20;;;0.20;;
74674;SDS011;63200;48.810;12.352;2023-08-06T13:18:22;2.35;;;0.10;;
74674;SDS011;63200;48.810;12.352;2023-08-06T13:20:47;1.30;;;0.20;;
74674;SDS011;63200;48.810;12.352;2023-08-06T13:23:14;0.22;;;0.20;;
74674;SDS011;63200;48.810;12.352;2023-08-06T13:25:41;0.20;;;0.20;;
74674;SDS011;63200;48.810;12.352;2023-08-06T13:28:07;0.95;;;0.30;;
74674;SDS011;63200;48.810;12.352;2023-08-06T13:30:33;0.40;;;0.35;;
74674;SDS011;63200;48.810;12.352;2023-08-06T13:33:00;0.22;;;0.20;;
74674;SDS011;63200;48.810;12.352;2023-08-06T13:35:26;1.02;;;0.10;;
74674;SDS011;63200;48.810;12.352;2023-08-06T13:37:51;0.10;;;0.10;;
74674;SDS011;63200;48.810;12.352;2023-08-06T13:40:17;0.15;;;0.15;;
74674;SDS011;63200;48.810;12.352;2023-08-06T13:42:51;0.15;;;0.15;;
74674;SDS011;63200;48.810;12.352;2023-08-06T13:45:16;0.30;;;0.10;;
74674;SDS011;63200;48.810;12.352;2023-08-06T13:47:42;0.10;;;0.10;;
74674;SDS011;63200;48.810;12.352;2023-08-06T13:50:07;0.15;;;0.15;;
74674;SDS011;63200;48.810;12.352;2023-08-06T13:52:33;0.05;;;0.05;;
74674;SDS011;63200;48.810;12.352;2023-08-06T13:55:01;1.92;;;0.20;;
74674;SDS011;63200;48.810;12.352;2023-08-06T13:57:28;0.10;;;0.10;;
74674;SDS011;63200;48.810;12.352;2023-08-06T13:59:54;0.20;;;0.20;;
74674;SDS011;63200;48.810;12.352;2023-08-06T14:02:19;0.30;;;0.30;;
74674;SDS011;63200;48.810;12.352;2023-08-06T14:04:44;1.13;;;0.10;;
74674;SDS011;63200;48.810;12.352;2023-08-06T14:07:09;0.03;;;0.03;;
74674;SDS011;63200;48.810;12.352;2023-08-06T14:09:35;0.10;;;0.10;;
74674;SDS011;63200;48.810;12.352;2023-08-06T14:12:00;0.20;;;0.20;;
74674;SDS011;63200;48.810;12.352;2023-08-06T14:14:25;1.27;;;0.20;;
74674;SDS011;63200;48.810;12.352;2023-08-06T14:16:52;0.00;;;0.00;;
74674;SDS011;63200;48.810;12.352;2023-08-06T14:19:19;1.02;;;0.17;;
74674;SDS011;63200;48.810;12.352;2023-08-06T14:21:44;0.20;;;0.20;;
74674;SDS011;63200;48.810;12.352;2023-08-06T14:24:09;1.48;;;0.20;;
74674;SDS011;63200;48.810;12.352;2023-08-06T14:26:35;0.10;;;0.10;;
74674;SDS011;63200;48.810;12.352;2023-08-06T14:29:00;0.20;;;0.20;;
74674;SDS011;63200;48.810;12.352;2023-08-06T14:31:26;0.30;;;0.30;;
74674;SDS011;63200;48.810;12.352;2023-08-06T14:33:51;0.13;;;0.13;;
74674;SDS011;63200;48.810;12.352;2023-08-06T14:36:17;4.38;;;0.98;;
74674;SDS011;63200;48.810;12.352;2023-08-06T14:38:42;4.35;;;0.60;;
74674;SDS011;63200;48.810;12.352;2023-08-06T14:41:07;1.10;;;0.50;;
74674;SDS011;63200;48.810;12.352;2023-08-06T14:43:33;0.30;;;0.30;;
74674;SDS011;63200;48.810;12.352;2023-08-06T14:45:58;0.55;;;0.28;;